createdAt,value
2019-03-22T00:03:19.199Z,48.17
2019-03-22T00:13:22.130Z,52.17
2019-03-22T00:23:24.958Z,47.98
2019-03-22T00:33:28.211Z,44.77
2019-03-22T00:43:31.263Z,51.02
2019-03-22T01:03:36.562Z,43.38
2019-03-22T01:13:39.187Z,44.33
2019-03-22T01:23:42.000Z,43.77
2019-03-22T01:33:44.779Z,43.52
2019-03-22T01:43:48.023Z,46.75
2019-03-22T01:53:50.861Z,39.53
2019-03-22T02:03:53.738Z,42.98
2019-03-22T02:13:56.774Z,38.33
2019-03-22T02:23:59.659Z,44.65
2019-03-22T02:34:02.393Z,29.65
2019-03-22T02:44:04.896Z,38.02
2019-03-22T02:54:07.467Z,31.43
2019-03-22T03:04:09.962Z,34.00
2019-03-22T03:14:12.423Z,28.07
2019-03-22T03:24:15.068Z,32.30
2019-03-22T03:34:18.096Z,25.67
2019-03-22T03:44:21.420Z,29.95
2019-03-22T03:54:24.254Z,26.95
2019-03-22T04:04:27.560Z,33.63
2019-03-22T04:14:30.023Z,33.25
2019-03-22T04:24:32.508Z,25.97
2019-03-22T04:34:35.160Z,28.77
2019-03-22T04:44:38.388Z,25.80
2019-03-22T04:54:44.593Z,27.95
2019-03-22T05:04:48.483Z,31.37
2019-03-22T05:14:52.792Z,28.35
2019-03-22T05:24:57.411Z,36.63
2019-03-22T05:35:00.692Z,32.88
2019-03-22T05:45:05.025Z,30.27
2019-03-22T05:55:08.310Z,51.45
2019-03-22T06:05:11.344Z,27.93
2019-03-22T06:25:16.830Z,32.03
2019-03-22T06:35:19.359Z,27.42
2019-03-22T06:45:22.124Z,31.17
2019-03-22T06:55:25.143Z,22.97
2019-03-22T07:05:28.015Z,26.33
2019-03-22T07:15:31.215Z,24.43
2019-03-22T07:35:35.987Z,29.85
2019-03-22T07:45:38.871Z,23.42
2019-03-22T07:55:43.674Z,21.45
2019-03-22T08:05:51.397Z,28.32
2019-03-22T08:15:52.238Z,20.82
2019-03-22T08:25:55.487Z,32.88
2019-03-22T08:35:57.962Z,24.77
2019-03-22T08:46:00.511Z,27.97
2019-03-22T08:56:03.242Z,36.13
2019-03-22T09:06:08.055Z,20.25
2019-03-22T09:16:10.750Z,22.25
2019-03-22T09:26:13.656Z,21.00
2019-03-22T09:36:16.264Z,19.45
2019-03-22T09:46:18.943Z,21.80
2019-03-22T09:56:22.152Z,22.17
2019-03-22T10:06:25.038Z,18.45
2019-03-22T10:16:28.015Z,23.25
2019-03-22T10:26:31.819Z,30.50
2019-03-22T10:36:34.932Z,24.45
2019-03-22T10:46:37.957Z,28.57
2019-03-22T10:56:41.049Z,23.98
2019-03-22T11:06:44.410Z,27.50
2019-03-22T11:16:47.399Z,25.30
2019-03-22T11:26:50.105Z,22.48
2019-03-22T11:46:54.870Z,23.55
2019-03-22T11:56:58.046Z,22.20
2019-03-22T12:07:01.014Z,18.40
2019-03-22T12:17:03.811Z,21.05
2019-03-22T12:27:06.532Z,10.78
2019-03-22T12:37:09.827Z,13.88
2019-03-22T12:47:12.416Z,12.65
2019-03-22T12:57:15.137Z,13.83
2019-03-22T13:07:18.148Z,10.38
2019-03-22T13:17:20.613Z,11.35
2019-03-22T13:27:24.443Z,5.67
2019-03-22T13:37:28.207Z,5.03
2019-03-22T13:47:30.698Z,4.60
2019-03-22T13:57:33.615Z,5.25
2019-03-22T14:07:37.362Z,4.53
2019-03-22T14:17:40.039Z,17.62
2019-03-22T14:27:42.524Z,5.40
2019-03-22T14:37:45.432Z,10.95
2019-03-22T14:47:48.344Z,8.40
2019-03-22T14:57:52.415Z,10.38
2019-03-22T15:07:55.326Z,10.67
2019-03-22T15:17:58.267Z,15.35
2019-03-22T15:28:01.015Z,9.28
2019-03-22T15:38:04.854Z,8.03
2019-03-22T15:48:07.723Z,5.03
2019-03-22T15:58:11.660Z,33.70
2019-03-22T16:08:14.690Z,17.10
2019-03-22T16:18:17.674Z,18.17
2019-03-22T16:28:20.231Z,17.02
2019-03-22T16:38:22.879Z,13.88
2019-03-22T16:48:25.639Z,9.73
2019-03-22T16:58:28.382Z,7.20
2019-03-22T17:08:31.084Z,36.68
2019-03-22T17:18:33.782Z,31.10
2019-03-22T17:28:37.190Z,11.65
2019-03-22T17:38:40.187Z,19.10
2019-03-22T17:48:43.722Z,8.00
2019-03-22T17:58:46.311Z,9.63
2019-03-22T18:08:49.237Z,7.37
2019-03-22T18:18:52.394Z,9.23
2019-03-22T18:28:55.475Z,9.00
2019-03-22T18:38:58.421Z,9.78
2019-03-22T18:49:01.212Z,8.38
2019-03-22T19:09:06.862Z,9.48
2019-03-22T19:19:10.158Z,8.33
2019-03-22T19:29:12.743Z,9.90
2019-03-22T19:39:15.755Z,7.12
2019-03-22T19:49:18.242Z,8.45
2019-03-22T19:59:20.850Z,8.93
2019-03-22T20:09:23.446Z,10.38
2019-03-22T20:19:26.406Z,16.00
2019-03-22T20:39:30.923Z,11.70
2019-03-22T20:59:35.563Z,7.90
2019-03-22T21:09:38.214Z,9.78
2019-03-22T21:19:41.039Z,10.15
2019-03-22T21:29:44.578Z,11.60
2019-03-22T21:39:47.838Z,17.55
2019-03-22T21:49:50.828Z,14.20
2019-03-22T22:09:57.149Z,11.40
2019-03-22T22:20:00.119Z,17.17
2019-03-22T22:40:05.932Z,16.87
2019-03-22T22:50:09.382Z,18.02
2019-03-22T23:00:13.542Z,16.55
2019-03-22T23:10:16.274Z,33.70
2019-03-22T23:20:19.005Z,34.45
2019-03-22T23:30:21.882Z,49.50
2019-03-22T23:40:24.410Z,53.63
2019-03-22T23:50:27.279Z,52.37
